Time;durP1;ratioP1;P1;durP2;ratioP2;P2;SDS_P1;SDS_P2;PMS_P1;PMS_P2;Temp;Humidity;BMP_temperature;BMP_pressure;BME280_temperature;BME280_humidity;BME280_pressure;Samples;Min_cycle;Max_cycle;Signal;HPM_P1;HPM_P2
2022/04/05 00:00:06;;;;;;;9.23;1.15;;;7.10;99.90;;;;;;5022030;28;20034;-65
2022/04/05 00:02:32;;;;;;;4.80;0.93;;;7.10;99.90;;;;;;5021949;28;20160;-65
2022/04/05 00:04:58;;;;;;;5.90;0.77;;;7.10;99.90;;;;;;5022615;28;20076;-65
2022/04/05 00:07:24;;;;;;;4.78;0.93;;;7.10;99.90;;;;;;5022154;28;20064;-65
2022/04/05 00:09:49;;;;;;;6.80;0.95;;;7.00;99.90;;;;;;5018021;28;20048;-65
2022/04/05 00:12:15;;;;;;;6.90;0.90;;;7.00;99.90;;;;;;5001997;28;20465;-65
2022/04/05 00:14:41;;;;;;;7.03;0.65;;;7.00;99.90;;;;;;5020846;28;20029;-65
2022/04/05 00:17:07;;;;;;;5.75;0.80;;;7.00;99.90;;;;;;5000988;28;20051;-65
2022/04/05 00:19:33;;;;;;;7.53;0.85;;;7.00;99.90;;;;;;5021842;28;20045;-65
2022/04/05 00:21:58;;;;;;;5.95;0.82;;;6.90;99.90;;;;;;5027761;28;20099;-65
2022/04/05 00:24:24;;;;;;;3.28;0.82;;;6.90;99.90;;;;;;5025967;28;20103;-65
2022/04/05 00:26:50;;;;;;;7.18;0.80;;;6.90;99.90;;;;;;5025895;28;20078;-65
2022/04/05 00:29:16;;;;;;;6.80;0.80;;;6.90;99.90;;;;;;5025696;28;20033;-65
2022/04/05 00:31:41;;;;;;;5.25;0.85;;;6.90;99.90;;;;;;5027040;28;20052;-65
2022/04/05 00:34:07;;;;;;;4.68;0.85;;;6.90;99.90;;;;;;5025569;28;20099;-65
2022/04/05 00:36:33;;;;;;;7.30;0.57;;;6.90;99.90;;;;;;5024518;28;20034;-65
2022/04/05 00:38:59;;;;;;;4.57;0.75;;;6.80;99.90;;;;;;5008636;28;20051;-65
2022/04/05 00:41:24;;;;;;;4.40;0.70;;;6.80;99.90;;;;;;5024540;28;20112;-66
2022/04/05 00:43:50;;;;;;;4.28;0.65;;;6.80;99.90;;;;;;5006056;28;20089;-66
2022/04/05 00:46:16;;;;;;;4.85;0.90;;;6.80;99.90;;;;;;5023282;28;20056;-65
2022/04/05 00:48:49;;;;;;;3.03;0.73;;;6.80;99.90;;;;;;5004976;28;20051;-65
2022/04/05 00:51:17;;;;;;;3.95;0.73;;;6.80;99.90;;;;;;5024640;28;20500;-65
2022/04/05 00:53:47;;;;;;;4.47;0.60;;;6.80;99.90;;;;;;5011474;28;20072;-65
2022/04/05 00:56:17;;;;;;;4.85;0.65;;;6.70;99.90;;;;;;5025554;28;20029;-65
2022/04/05 00:58:47;;;;;;;5.18;0.75;;;6.70;99.90;;;;;;5028100;28;20041;-65
2022/04/05 01:01:18;;;;;;;8.77;0.80;;;6.70;99.90;;;;;;5024747;28;20065;-66
2022/04/05 01:03:49;;;;;;;3.63;0.50;;;6.70;99.90;;;;;;5008485;28;20367;-66
2022/04/05 01:06:17;;;;;;;4.28;0.80;;;6.70;99.90;;;;;;5022645;28;20041;-66
2022/04/05 01:08:46;;;;;;;3.53;0.82;;;6.70;99.90;;;;;;5025962;28;20787;-66
2022/04/05 01:11:12;;;;;;;5.10;0.73;;;6.70;99.90;;;;;;5020908;28;20030;-66
2022/04/05 01:13:38;;;;;;;6.47;0.75;;;6.60;99.90;;;;;;5025522;28;20035;-66
2022/04/05 01:16:04;;;;;;;5.88;0.73;;;6.60;99.90;;;;;;5024696;28;20042;-66
2022/04/05 01:18:30;;;;;;;4.30;0.70;;;6.60;99.90;;;;;;5028153;28;20055;-66
2022/04/05 01:21:00;;;;;;;4.57;0.70;;;6.60;99.90;;;;;;5026137;28;20044;-66
2022/04/05 01:23:26;;;;;;;5.07;0.80;;;6.60;99.90;;;;;;5006404;28;20038;-66
2022/04/05 01:25:52;;;;;;;7.25;0.82;;;6.60;99.90;;;;;;5023187;28;20083;-66
2022/04/05 01:28:19;;;;;;;6.55;0.90;;;6.60;99.90;;;;;;5025011;28;20124;-66
2022/04/05 01:30:45;;;;;;;9.95;1.73;;;6.60;99.90;;;;;;5007033;28;20042;-66
2022/04/05 01:33:11;;;;;;;3.25;0.98;;;6.60;99.90;;;;;;4992231;28;20084;-66
2022/04/05 01:35:37;;;;;;;4.63;0.98;;;6.60;99.90;;;;;;5025699;28;20084;-66
2022/04/05 01:38:07;;;;;;;5.78;1.00;;;6.60;99.90;;;;;;5028130;28;20056;-66
2022/04/05 01:40:33;;;;;;;5.13;0.85;;;6.60;99.90;;;;;;5022251;28;20552;-66
2022/04/05 01:42:59;;;;;;;4.10;0.98;;;6.60;99.90;;;;;;5023388;28;20049;-66
2022/04/05 01:45:25;;;;;;;5.15;0.88;;;6.60;99.90;;;;;;5024620;28;20045;-66
2022/04/05 01:47:51;;;;;;;6.43;0.93;;;6.60;99.90;;;;;;5024137;28;20080;-66
2022/04/05 01:50:16;;;;;;;5.65;0.70;;;6.60;99.90;;;;;;5024866;28;20052;-66
2022/04/05 01:52:42;;;;;;;5.45;0.70;;;6.50;99.90;;;;;;5006580;28;20041;-66
2022/04/05 01:55:09;;;;;;;6.28;0.90;;;6.50;99.90;;;;;;5024256;28;20052;-66
2022/04/05 01:57:35;;;;;;;7.78;0.85;;;6.50;99.90;;;;;;5024676;28;20388;-66
2022/04/05 02:00:02;;;;;;;5.57;0.65;;;6.50;99.90;;;;;;5008754;28;20061;-66
2022/04/05 02:02:28;;;;;;;5.38;1.10;;;6.50;99.90;;;;;;5023813;28;20049;-66
2022/04/05 02:04:54;;;;;;;5.78;0.93;;;6.50;99.90;;;;;;5024451;28;20400;-66
2022/04/05 02:07:20;;;;;;;4.63;1.00;;;6.50;99.90;;;;;;5025126;28;20029;-66
2022/04/05 02:09:50;;;;;;;5.28;0.75;;;6.50;99.90;;;;;;5024293;28;20041;-66
2022/04/05 02:12:17;;;;;;;5.90;0.93;;;6.50;99.90;;;;;;5025162;28;20036;-66
2022/04/05 02:14:42;;;;;;;3.97;0.65;;;6.50;99.90;;;;;;5022414;28;20033;-66
2022/04/05 02:17:09;;;;;;;3.15;0.77;;;6.50;99.90;;;;;;5023872;28;20054;-66
2022/04/05 02:19:36;;;;;;;4.45;0.65;;;6.50;99.90;;;;;;5007004;28;20483;-66
2022/04/05 02:22:03;;;;;;;4.38;0.73;;;6.50;99.90;;;;;;5005713;28;20095;-66
2022/04/05 02:24:28;;;;;;;5.80;0.60;;;6.40;99.90;;;;;;5023759;28;20339;-66
2022/04/05 02:26:54;;;;;;;2.92;0.63;;;6.40;99.90;;;;;;5023469;28;20044;-66
2022/04/05 02:29:20;;;;;;;7.38;0.82;;;6.40;99.90;;;;;;5024762;28;20605;-66
2022/04/05 02:31:46;;;;;;;4.90;0.85;;;6.50;99.90;;;;;;5022281;28;20192;-66
2022/04/05 02:34:12;;;;;;;4.05;0.60;;;6.40;99.90;;;;;;5022931;28;20037;-66
2022/04/05 02:36:38;;;;;;;2.78;0.60;;;6.50;99.90;;;;;;5020884;28;20076;-66
2022/04/05 02:39:06;;;;;;;3.75;0.75;;;6.40;99.90;;;;;;5023100;28;20075;-66
2022/04/05 02:41:32;;;;;;;6.28;0.90;;;6.40;99.90;;;;;;5005613;28;20509;-66
2022/04/05 02:43:59;;;;;;;5.20;0.77;;;6.50;99.90;;;;;;5026035;28;20389;-65
2022/04/05 02:46:25;;;;;;;6.03;1.13;;;6.50;99.90;;;;;;5022017;28;20179;-65
2022/04/05 02:48:54;;;;;;;4.82;1.10;;;6.50;99.90;;;;;;5023113;28;20045;-65
2022/04/05 02:51:21;;;;;;;4.25;0.68;;;6.50;99.90;;;;;;5021442;28;20041;-65
2022/04/05 02:53:48;;;;;;;3.65;0.60;;;6.50;99.90;;;;;;5024870;28;20172;-65
2022/04/05 02:56:14;;;;;;;5.57;0.82;;;6.50;99.90;;;;;;5023737;28;20562;-66
2022/04/05 02:58:40;;;;;;;5.82;0.65;;;6.50;99.90;;;;;;5004064;28;20184;-65
2022/04/05 03:01:06;;;;;;;2.50;0.60;;;6.50;99.90;;;;;;5021719;28;20053;-65
2022/04/05 03:03:35;;;;;;;5.40;0.90;;;6.50;99.90;;;;;;5022109;28;20052;-65
2022/04/05 03:06:01;;;;;;;4.38;0.88;;;6.50;99.90;;;;;;5021696;28;20053;-65
2022/04/05 03:08:27;;;;;;;5.80;0.82;;;6.50;99.90;;;;;;5025499;28;20037;-65
2022/04/05 03:10:53;;;;;;;4.70;0.90;;;6.50;99.90;;;;;;5021787;28;20096;-65
2022/04/05 03:13:19;;;;;;;6.65;0.93;;;6.50;99.90;;;;;;4992259;28;20038;-66
2022/04/05 03:15:45;;;;;;;6.50;1.20;;;6.50;99.90;;;;;;5021947;28;20171;-65
2022/04/05 03:18:11;;;;;;;6.10;1.00;;;6.50;99.90;;;;;;5024103;28;20037;-65
2022/04/05 03:20:37;;;;;;;6.20;1.20;;;6.50;99.90;;;;;;5024248;28;20045;-65
2022/04/05 03:23:04;;;;;;;8.82;1.00;;;6.50;99.90;;;;;;5024357;28;20037;-66
2022/04/05 03:25:30;;;;;;;5.20;0.93;;;6.60;99.90;;;;;;5021192;28;20511;-66
2022/04/05 03:28:00;;;;;;;5.03;1.00;;;6.60;99.90;;;;;;5023085;28;20076;-66
2022/04/05 03:30:26;;;;;;;4.10;1.00;;;6.50;99.90;;;;;;5020864;28;20041;-66
2022/04/05 03:32:52;;;;;;;7.72;1.20;;;6.60;99.90;;;;;;5020201;28;20350;-66
2022/04/05 03:35:18;;;;;;;8.50;1.65;;;6.60;99.90;;;;;;5023607;28;20041;-67
2022/04/05 03:37:44;;;;;;;6.93;0.88;;;6.50;99.90;;;;;;5003295;28;20100;-65
2022/04/05 03:40:12;;;;;;;7.47;1.27;;;6.50;99.90;;;;;;5004898;28;20069;-65
2022/04/05 03:42:38;;;;;;;5.75;1.20;;;6.60;99.90;;;;;;5021630;28;20088;-65
2022/04/05 03:45:04;;;;;;;4.85;1.10;;;6.60;99.90;;;;;;5004426;28;20077;-65
2022/04/05 03:47:31;;;;;;;4.30;1.25;;;6.60;99.90;;;;;;5018473;28;20485;-65
2022/04/05 03:49:57;;;;;;;7.20;1.30;;;6.60;99.90;;;;;;5007315;28;20064;-65
2022/04/05 03:52:22;;;;;;;7.60;1.40;;;6.60;99.90;;;;;;5006174;28;20114;-66
2022/04/05 03:54:48;;;;;;;5.68;1.40;;;6.60;99.90;;;;;;5007577;28;20045;-66
2022/04/05 03:57:14;;;;;;;5.05;1.40;;;6.60;99.90;;;;;;5028548;28;20038;-65
2022/04/05 03:59:40;;;;;;;5.93;1.63;;;6.50;99.90;;;;;;5028354;28;20049;-65
2022/04/05 04:02:05;;;;;;;5.43;0.90;;;6.60;99.90;;;;;;5026888;28;20104;-65
2022/04/05 04:04:31;;;;;;;3.97;1.08;;;6.60;99.90;;;;;;5029129;28;20041;-65
2022/04/05 04:06:57;;;;;;;5.03;1.33;;;6.60;99.90;;;;;;5030270;28;20029;-66
2022/04/05 04:09:23;;;;;;;6.03;1.20;;;6.60;99.90;;;;;;5029307;28;20044;-66
2022/04/05 04:11:49;;;;;;;7.47;1.38;;;6.60;99.90;;;;;;5031939;28;20094;-67
2022/04/05 04:14:15;;;;;;;7.03;1.45;;;6.60;99.90;;;;;;5030063;28;20484;-65
2022/04/05 04:16:41;;;;;;;7.35;1.55;;;6.60;99.90;;;;;;5027835;28;20033;-65
2022/04/05 04:19:07;;;;;;;7.88;1.50;;;6.70;99.90;;;;;;4993244;28;20049;-65
2022/04/05 04:21:33;;;;;;;6.40;1.23;;;6.60;99.90;;;;;;5026919;28;20401;-65
2022/04/05 04:23:59;;;;;;;7.13;1.42;;;6.70;99.90;;;;;;5027991;28;20045;-65
2022/04/05 04:26:24;;;;;;;6.78;1.42;;;6.60;99.90;;;;;;5027611;28;20053;-65
2022/04/05 04:28:53;;;;;;;5.05;1.27;;;6.60;99.90;;;;;;5010978;28;20092;-65
2022/04/05 04:31:19;;;;;;;7.57;1.73;;;6.60;99.90;;;;;;5013007;28;20048;-65
2022/04/05 04:33:44;;;;;;;8.57;1.70;;;6.60;99.90;;;;;;5030789;28;20037;-65
2022/04/05 04:36:11;;;;;;;10.02;1.80;;;6.60;99.90;;;;;;5023495;28;20030;-65
2022/04/05 04:38:36;;;;;;;9.00;2.00;;;6.60;99.90;;;;;;5029130;28;20048;-65
2022/04/05 04:41:02;;;;;;;5.68;1.67;;;6.60;99.90;;;;;;5028320;28;20033;-65
2022/04/05 04:43:28;;;;;;;7.78;1.90;;;6.60;99.90;;;;;;5029307;28;20532;-65
2022/04/05 04:45:54;;;;;;;10.00;2.50;;;6.60;99.90;;;;;;5008737;28;20065;-65
2022/04/05 04:48:21;;;;;;;11.85;1.88;;;6.60;99.90;;;;;;5031534;28;20106;-65
2022/04/05 04:50:48;;;;;;;8.32;1.70;;;6.50;99.90;;;;;;5028610;28;20061;-65
2022/04/05 04:53:14;;;;;;;7.38;1.88;;;6.50;99.90;;;;;;5028287;28;20057;-65
2022/04/05 04:55:40;;;;;;;8.30;1.98;;;6.60;99.90;;;;;;5027945;28;20038;-66
2022/04/05 04:58:05;;;;;;;10.27;2.08;;;6.50;99.90;;;;;;5009247;28;20046;-66
2022/04/05 05:00:31;;;;;;;8.52;1.88;;;6.50;99.90;;;;;;5030215;28;20041;-66
2022/04/05 05:02:57;;;;;;;9.75;1.88;;;6.50;99.90;;;;;;5027981;28;20498;-66
2022/04/05 05:05:23;;;;;;;6.45;1.52;;;6.50;99.90;;;;;;5024018;28;20389;-66
2022/04/05 05:07:51;;;;;;;8.35;1.67;;;6.50;99.90;;;;;;5009456;28;20037;-66
2022/04/05 05:10:18;;;;;;;7.10;2.00;;;6.50;99.90;;;;;;5021392;28;20106;-66
2022/04/05 05:12:45;;;;;;;6.90;1.88;;;6.50;99.90;;;;;;5016417;28;20037;-66
2022/04/05 05:15:17;;;;;;;6.35;1.38;;;6.50;99.90;;;;;;5025390;28;20079;-66
2022/04/05 05:17:45;;;;;;;8.27;1.52;;;6.50;99.90;;;;;;5020582;28;20615;-66
2022/04/05 05:20:11;;;;;;;5.82;1.50;;;6.50;99.90;;;;;;5022795;28;20049;-66
2022/04/05 05:22:39;;;;;;;7.55;1.95;;;6.50;99.90;;;;;;5018244;28;20500;-66
2022/04/05 05:25:05;;;;;;;6.68;1.90;;;6.50;99.90;;;;;;5022600;28;20060;-66
2022/04/05 05:27:31;;;;;;;7.28;1.65;;;6.50;99.90;;;;;;5022061;28;20108;-66
2022/04/05 05:29:56;;;;;;;7.85;1.45;;;6.50;99.90;;;;;;5021465;28;20069;-66
2022/04/05 05:32:22;;;;;;;7.13;1.60;;;6.50;99.90;;;;;;5022247;28;20049;-66
2022/04/05 05:34:48;;;;;;;6.10;1.60;;;6.50;99.90;;;;;;5008705;28;20053;-66
2022/04/05 05:37:14;;;;;;;8.75;1.45;;;6.50;99.90;;;;;;5005558;28;20474;-66
2022/04/05 05:39:40;;;;;;;10.13;1.50;;;6.50;99.90;;;;;;5024618;28;20065;-66
2022/04/05 05:42:07;;;;;;;11.85;1.92;;;6.60;99.90;;;;;;5025264;28;20041;-65
2022/04/05 05:44:34;;;;;;;8.77;1.50;;;6.60;99.90;;;;;;5030283;28;20469;-65
2022/04/05 05:47:00;;;;;;;5.78;1.60;;;6.60;99.90;;;;;;5026769;28;20470;-66
2022/04/05 05:49:26;;;;;;;7.28;1.55;;;6.60;99.90;;;;;;5012242;28;20512;-65
2022/04/05 05:51:51;;;;;;;7.35;1.38;;;6.60;99.90;;;;;;5011708;28;20041;-65
2022/04/05 05:54:18;;;;;;;6.72;1.40;;;6.70;99.90;;;;;;5028597;28;20045;-65
2022/04/05 05:56:44;;;;;;;6.80;1.25;;;6.70;99.90;;;;;;5027567;28;20042;-65
2022/04/05 05:59:10;;;;;;;7.63;1.15;;;6.70;99.90;;;;;;5027640;28;20049;-66
2022/04/05 06:01:36;;;;;;;5.28;1.20;;;6.70;99.90;;;;;;5009533;28;20095;-66
2022/04/05 06:04:02;;;;;;;9.40;1.30;;;6.80;99.90;;;;;;5023014;28;20048;-66
2022/04/05 06:06:29;;;;;;;4.88;1.20;;;6.80;99.90;;;;;;5028647;28;20041;-66
2022/04/05 06:08:58;;;;;;;4.85;1.00;;;6.80;99.90;;;;;;5024400;28;20053;-66
2022/04/05 06:11:24;;;;;;;10.75;1.40;;;6.80;99.90;;;;;;5026842;28;20045;-66
2022/04/05 06:13:50;;;;;;;7.40;1.05;;;6.80;99.90;;;;;;5022260;28;20038;-66
2022/04/05 06:16:18;;;;;;;6.82;1.05;;;6.80;99.90;;;;;;5027362;28;20527;-66
2022/04/05 06:18:47;;;;;;;5.25;1.15;;;6.90;99.90;;;;;;5015386;28;20117;-66
2022/04/05 06:21:14;;;;;;;7.75;1.13;;;6.90;99.90;;;;;;5006927;28;20041;-66
2022/04/05 06:23:40;;;;;;;5.63;1.42;;;6.90;99.90;;;;;;5021663;28;20041;-66
2022/04/05 06:26:06;;;;;;;7.68;1.05;;;6.90;99.90;;;;;;5026513;28;20046;-66
2022/04/05 06:28:32;;;;;;;7.22;1.40;;;6.90;99.90;;;;;;5026764;28;20037;-66
2022/04/05 06:30:58;;;;;;;3.17;0.80;;;6.90;99.90;;;;;;5027408;28;20041;-66
2022/04/05 06:33:24;;;;;;;6.75;1.10;;;6.90;99.90;;;;;;5006156;28;20046;-66
2022/04/05 06:35:52;;;;;;;7.78;1.40;;;7.00;99.90;;;;;;5026635;28;20037;-66
2022/04/05 06:38:19;;;;;;;9.93;1.00;;;7.00;99.90;;;;;;5019997;28;20045;-66
2022/04/05 06:40:45;;;;;;;4.00;0.93;;;7.00;99.90;;;;;;5024196;28;20418;-66
2022/04/05 06:43:16;;;;;;;8.05;1.42;;;7.10;99.90;;;;;;5022730;28;20051;-66
2022/04/05 06:45:43;;;;;;;5.88;0.80;;;7.10;99.90;;;;;;5022643;28;20092;-66
2022/04/05 06:48:09;;;;;;;8.75;1.83;;;7.20;99.90;;;;;;5002518;28;20041;-66
2022/04/05 06:50:38;;;;;;;4.50;0.90;;;7.30;99.90;;;;;;5018265;28;20399;-66
2022/04/05 06:53:06;;;;;;;3.55;0.80;;;7.40;99.90;;;;;;5027392;28;20053;-66
2022/04/05 06:55:32;;;;;;;5.75;0.82;;;7.40;99.90;;;;;;5020079;28;20052;-66
2022/04/05 06:57:58;;;;;;;5.57;0.80;;;7.40;99.90;;;;;;5018361;28;20038;-66
2022/04/05 07:00:25;;;;;;;4.88;0.88;;;7.40;99.90;;;;;;5020524;28;20045;-66
2022/04/05 07:02:52;;;;;;;5.25;1.15;;;7.50;99.90;;;;;;5017255;28;20042;-66
2022/04/05 07:05:19;;;;;;;3.78;0.60;;;7.50;99.90;;;;;;5020068;28;20041;-66
2022/04/05 07:07:45;;;;;;;2.40;0.82;;;7.40;99.90;;;;;;5018922;28;20479;-65
2022/04/05 07:10:14;;;;;;;4.05;1.00;;;7.50;99.90;;;;;;5016931;28;20038;-67
2022/04/05 07:12:41;;;;;;;5.80;0.88;;;7.40;99.90;;;;;;5000136;28;20070;-67
2022/04/05 07:15:09;;;;;;;2.00;0.68;;;7.50;99.90;;;;;;5019688;28;20041;-66
2022/04/05 07:17:35;;;;;;;5.60;0.95;;;7.50;99.90;;;;;;5019254;28;20425;-66
2022/04/05 07:20:01;;;;;;;3.15;0.65;;;7.50;99.90;;;;;;5019516;28;20107;-66
2022/04/05 07:22:26;;;;;;;4.47;0.60;;;7.50;99.90;;;;;;5019621;28;20053;-66
2022/04/05 07:24:52;;;;;;;4.03;0.70;;;7.60;99.90;;;;;;5022823;28;20045;-66
2022/04/05 07:27:18;;;;;;;4.72;0.52;;;7.50;99.90;;;;;;5003262;28;20041;-66
2022/04/05 07:29:44;;;;;;;3.53;0.60;;;7.60;99.90;;;;;;5027114;28;20474;-66
2022/04/05 07:32:09;;;;;;;4.20;0.88;;;7.60;99.90;;;;;;5020272;28;20044;-66
2022/04/05 07:34:35;;;;;;;4.47;0.90;;;7.70;99.90;;;;;;5026738;28;20041;-66
2022/04/05 07:37:01;;;;;;;2.22;0.50;;;7.80;99.90;;;;;;5019324;28;20044;-65
2022/04/05 07:39:27;;;;;;;5.03;0.75;;;7.90;99.90;;;;;;5009463;28;20041;-66
2022/04/05 07:41:52;;;;;;;4.15;0.80;;;7.90;99.90;;;;;;5021723;28;20060;-65
2022/04/05 07:44:18;;;;;;;7.50;0.85;;;8.00;99.90;;;;;;5022818;28;20050;-65
2022/04/05 07:46:45;;;;;;;1.98;0.70;;;8.10;99.90;;;;;;5015989;28;20464;-65
2022/04/05 07:49:10;;;;;;;2.80;0.77;;;8.20;99.90;;;;;;5016698;28;20037;-66
2022/04/05 07:51:37;;;;;;;2.78;0.80;;;8.30;99.90;;;;;;5016093;28;20088;-66
2022/04/05 07:54:04;;;;;;;3.72;0.85;;;8.30;99.90;;;;;;5000052;28;20364;-66
2022/04/05 07:56:30;;;;;;;4.10;0.80;;;8.40;99.90;;;;;;5019143;28;20462;-66
2022/04/05 07:58:56;;;;;;;3.75;0.60;;;8.40;99.90;;;;;;5025590;28;20037;-66
2022/04/05 08:01:23;;;;;;;3.67;0.93;;;8.30;99.90;;;;;;5024260;28;20052;-66
2022/04/05 08:03:48;;;;;;;3.22;0.70;;;8.30;99.90;;;;;;5018581;28;20052;-66
2022/04/05 08:06:14;;;;;;;3.55;0.52;;;8.30;99.90;;;;;;5020740;28;20046;-66
2022/04/05 08:08:40;;;;;;;3.55;0.65;;;8.30;99.90;;;;;;5022328;28;20456;-66
2022/04/05 08:11:05;;;;;;;4.30;0.40;;;8.30;99.90;;;;;;5016032;28;20045;-66
2022/04/05 08:13:31;;;;;;;2.60;0.60;;;8.30;99.90;;;;;;5017682;28;20041;-66
2022/04/05 08:15:57;;;;;;;3.25;0.70;;;8.30;99.90;;;;;;5021755;28;20434;-66
2022/04/05 08:18:23;;;;;;;3.85;0.80;;;8.30;99.90;;;;;;5018063;28;20037;-66
2022/04/05 08:20:49;;;;;;;3.58;0.60;;;8.40;99.90;;;;;;5007115;28;20092;-67
2022/04/05 08:23:15;;;;;;;3.97;0.73;;;8.40;99.90;;;;;;5020738;28;20042;-67
2022/04/05 08:25:40;;;;;;;3.63;0.90;;;8.40;99.90;;;;;;5022532;28;20044;-67
2022/04/05 08:28:07;;;;;;;2.55;0.70;;;8.40;99.90;;;;;;5024573;28;20474;-67
2022/04/05 08:30:33;;;;;;;5.75;0.60;;;8.40;99.90;;;;;;5022748;28;20070;-67
2022/04/05 08:32:58;;;;;;;3.72;0.70;;;8.40;99.90;;;;;;5004963;28;20453;-67
2022/04/05 08:35:25;;;;;;;1.63;0.43;;;8.40;99.90;;;;;;5021290;28;20096;-66
2022/04/05 08:37:53;;;;;;;3.60;0.73;;;8.50;99.90;;;;;;5021658;28;20385;-66
2022/04/05 08:40:20;;;;;;;5.43;1.52;;;8.50;99.90;;;;;;5021635;28;20038;-66
2022/04/05 08:42:51;;;;;;;3.70;0.70;;;8.60;99.90;;;;;;5021569;28;20401;-67
2022/04/05 08:45:18;;;;;;;3.67;0.85;;;8.60;99.90;;;;;;5031456;28;20063;-66
2022/04/05 08:47:55;;;;;;;2.65;0.70;;;8.70;99.90;;;;;;5020379;28;20463;-66
2022/04/05 08:50:32;;;;;;;2.67;0.70;;;8.70;99.90;;;;;;5018972;28;20029;-66
2022/04/05 08:53:01;;;;;;;2.38;0.60;;;8.70;99.90;;;;;;5019921;28;20137;-66
2022/04/05 08:55:28;;;;;;;2.22;0.70;;;8.70;99.90;;;;;;5018585;28;20033;-66
2022/04/05 08:57:55;;;;;;;1.35;0.40;;;8.80;99.90;;;;;;5003941;28;20085;-66
2022/04/05 09:00:23;;;;;;;2.70;0.68;;;8.90;99.90;;;;;;5019443;28;20124;-66
2022/04/05 09:03:00;;;;;;;1.08;0.57;;;8.90;99.90;;;;;;5023563;28;20473;-66
2022/04/05 09:05:37;;;;;;;2.75;0.43;;;9.00;99.90;;;;;;5011315;28;20041;-66
2022/04/05 09:08:28;;;;;;;1.20;0.57;;;9.00;99.90;;;;;;5024184;28;20088;-66
2022/04/05 09:11:03;;;;;;;1.27;0.30;;;9.00;99.90;;;;;;5001907;28;20057;-66
2022/04/05 09:13:28;;;;;;;0.30;0.28;;;8.90;99.90;;;;;;5029482;28;20041;-66
2022/04/05 09:15:58;;;;;;;0.80;0.32;;;8.90;99.90;;;;;;5025233;28;20041;-66
2022/04/05 09:18:47;;;;;;;2.72;0.40;;;8.90;99.90;;;;;;5006618;28;20045;-66
2022/04/05 09:21:16;;;;;;;2.53;0.65;;;8.90;99.90;;;;;;5015822;28;20080;-66
2022/04/05 09:23:43;;;;;;;1.80;0.50;;;9.00;99.90;;;;;;5024772;28;20033;-66
2022/04/05 09:26:14;;;;;;;1.48;0.40;;;9.10;99.90;;;;;;5025087;28;20052;-66
2022/04/05 09:28:46;;;;;;;2.53;0.47;;;9.10;99.90;;;;;;5023534;28;20417;-66
2022/04/05 09:31:22;;;;;;;1.48;0.40;;;9.10;99.90;;;;;;5026205;28;20041;-66
2022/04/05 09:34:09;;;;;;;1.15;0.35;;;9.20;99.90;;;;;;5022307;28;20095;-66
2022/04/05 09:36:38;;;;;;;1.67;0.60;;;9.20;99.90;;;;;;5021740;28;20045;-66
2022/04/05 09:39:20;;;;;;;0.68;0.20;;;9.40;99.90;;;;;;5022614;28;20530;-66
2022/04/05 09:42:08;;;;;;;0.60;0.20;;;9.40;99.90;;;;;;5025388;28;20060;-66
2022/04/05 09:44:39;;;;;;;0.63;0.20;;;9.50;99.90;;;;;;5023178;28;20061;-66
2022/04/05 09:47:10;;;;;;;1.85;0.30;;;9.60;99.90;;;;;;4998524;28;20061;-66
2022/04/05 09:49:41;;;;;;;0.80;0.20;;;9.60;99.90;;;;;;4998705;28;20571;-66
2022/04/05 09:52:42;;;;;;;1.35;0.20;;;9.60;99.90;;;;;;5017018;28;20045;-66
2022/04/05 09:55:16;;;;;;;1.25;0.20;;;9.60;99.90;;;;;;4957783;28;20039;-66
2022/04/05 09:57:43;;;;;;;1.08;0.40;;;9.70;99.90;;;;;;5013978;28;20057;-66
2022/04/05 10:00:14;;;;;;;0.98;0.52;;;9.70;99.90;;;;;;5020078;28;20453;-66
2022/04/05 10:03:02;;;;;;;1.10;0.50;;;9.70;99.90;;;;;;5019075;28;20038;-66
2022/04/05 10:05:32;;;;;;;1.23;0.52;;;9.70;99.90;;;;;;5023041;28;20339;-66
2022/04/05 10:07:58;;;;;;;1.52;0.90;;;9.70;99.90;;;;;;5022916;28;20056;-66
2022/04/05 10:10:25;;;;;;;1.40;1.10;;;9.70;99.90;;;;;;5025283;28;20393;-66
2022/04/05 10:12:51;;;;;;;1.83;1.08;;;9.70;99.90;;;;;;5024819;28;20046;-66
2022/04/05 10:15:18;;;;;;;1.60;1.10;;;9.60;99.90;;;;;;5023983;28;20045;-66
2022/04/05 10:17:47;;;;;;;1.50;1.30;;;9.70;99.90;;;;;;5004743;28;20112;-66
2022/04/05 10:20:13;;;;;;;1.45;1.20;;;9.70;99.90;;;;;;5026792;28;20168;-67
2022/04/05 10:22:40;;;;;;;2.25;1.50;;;9.80;99.90;;;;;;5025150;28;20034;-66
2022/04/05 10:25:07;;;;;;;2.47;1.65;;;9.90;99.90;;;;;;5027644;28;20488;-67
2022/04/05 10:27:33;;;;;;;2.00;1.80;;;10.00;99.90;;;;;;5022698;28;20047;-67
2022/04/05 10:30:10;;;;;;;2.15;1.83;;;10.10;99.90;;;;;;5004814;28;20037;-67
2022/04/05 10:33:04;;;;;;;2.42;1.85;;;10.10;99.90;;;;;;5014193;28;20520;-67
2022/04/05 10:35:33;;;;;;;2.40;1.73;;;10.10;99.90;;;;;;5024012;28;20048;-66
2022/04/05 10:38:19;;;;;;;2.80;2.45;;;10.10;99.90;;;;;;5012572;28;20103;-66
2022/04/05 10:41:20;;;;;;;3.03;2.60;;;10.20;99.90;;;;;;5019670;28;20518;-67
2022/04/05 10:44:07;;;;;;;2.75;2.50;;;10.30;99.90;;;;;;4997476;28;20037;-67
2022/04/05 10:46:41;;;;;;;3.80;2.80;;;10.40;99.90;;;;;;5021855;28;20042;-67
2022/04/05 10:49:07;;;;;;;4.35;2.42;;;10.60;99.90;;;;;;5019559;28;20045;-67
2022/04/05 10:52:08;;;;;;;3.50;3.20;;;10.60;99.90;;;;;;5019137;28;20034;-67
2022/04/05 10:54:46;;;;;;;3.25;2.95;;;10.60;99.90;;;;;;5020745;28;20154;-67
2022/04/05 10:57:31;;;;;;;3.58;2.80;;;10.80;99.90;;;;;;5022363;28;20045;-67
2022/04/05 11:00:00;;;;;;;3.83;3.42;;;10.90;99.90;;;;;;5023788;28;20072;-67
2022/04/05 11:02:33;;;;;;;3.30;3.00;;;11.00;99.90;;;;;;5023957;28;20120;-67
2022/04/05 11:05:01;;;;;;;3.80;3.22;;;11.20;99.90;;;;;;5024944;28;20030;-68
2022/04/05 11:07:27;;;;;;;3.63;3.25;;;11.30;99.90;;;;;;5005398;28;20053;-67
2022/04/05 11:09:59;;;;;;;3.30;3.00;;;11.50;99.90;;;;;;5022875;28;20045;-68
2022/04/05 11:12:30;;;;;;;2.50;2.30;;;11.70;99.90;;;;;;5023414;28;20076;-67
2022/04/05 11:15:03;;;;;;;3.38;2.75;;;11.80;99.90;;;;;;5023155;28;20152;-68
2022/04/05 11:17:31;;;;;;;2.78;2.45;;;11.60;99.90;;;;;;5021459;28;20155;-68
2022/04/05 11:19:59;;;;;;;2.28;2.08;;;11.40;99.90;;;;;;5022355;28;20087;-67
2022/04/05 11:22:28;;;;;;;2.45;2.25;;;11.40;99.90;;;;;;5020072;28;20048;-67
2022/04/05 11:25:03;;;;;;;3.15;2.25;;;11.40;99.90;;;;;;5021369;28;20067;-67
2022/04/05 11:27:45;;;;;;;3.05;2.50;;;11.60;99.90;;;;;;5022430;28;20726;-68
2022/04/05 11:30:26;;;;;;;3.03;2.47;;;12.00;99.90;;;;;;5020509;28;20588;-68
2022/04/05 11:33:16;;;;;;;3.22;2.65;;;12.40;99.90;;;;;;5021058;28;20033;-67
2022/04/05 11:35:56;;;;;;;3.20;2.72;;;12.50;99.90;;;;;;5000863;28;20053;-67
2022/04/05 11:38:22;;;;;;;2.95;2.65;;;12.40;99.90;;;;;;5022167;28;20049;-67
2022/04/05 11:40:51;;;;;;;2.90;2.33;;;12.20;99.90;;;;;;5025314;28;20057;-67
2022/04/05 11:43:18;;;;;;;3.10;2.80;;;12.00;99.90;;;;;;5025901;28;20033;-67
2022/04/05 11:45:48;;;;;;;3.58;3.25;;;11.70;99.90;;;;;;5017264;28;20060;-68
2022/04/05 11:48:21;;;;;;;3.03;2.72;;;11.50;99.90;;;;;;5020351;28;20080;-67
2022/04/05 11:50:49;;;;;;;3.85;3.30;;;11.40;99.90;;;;;;5002118;28;20089;-67
2022/04/05 11:53:31;;;;;;;4.90;3.30;;;11.30;99.90;;;;;;5022049;28;20112;-67
2022/04/05 11:56:13;;;;;;;5.75;3.90;;;11.30;99.90;;;;;;5019856;28;20048;-67
2022/04/05 11:58:45;;;;;;;5.13;3.63;;;11.30;99.90;;;;;;5022097;28;20091;-68
2022/04/05 12:01:12;;;;;;;6.07;4.03;;;11.40;99.90;;;;;;5003877;28;20041;-67
2022/04/05 12:03:50;;;;;;;5.95;4.22;;;11.50;99.90;;;;;;5024265;28;20105;-67
2022/04/05 12:06:29;;;;;;;5.63;4.03;;;11.50;99.90;;;;;;5022694;28;20478;-68
2022/04/05 12:08:57;;;;;;;5.63;3.72;;;11.50;99.90;;;;;;5004105;28;20111;-67
2022/04/05 12:11:25;;;;;;;7.28;4.32;;;11.50;99.90;;;;;;5001022;28;20113;-67
2022/04/05 12:13:56;;;;;;;5.88;3.83;;;11.40;99.90;;;;;;5004564;28;20034;-67
2022/04/05 12:16:27;;;;;;;6.88;4.30;;;11.40;99.90;;;;;;5021393;28;20183;-67
2022/04/05 12:18:53;;;;;;;6.03;3.75;;;11.40;99.90;;;;;;5024364;28;20485;-67
2022/04/05 12:21:21;;;;;;;8.00;4.22;;;11.30;99.90;;;;;;5024737;28;20053;-67
2022/04/05 12:23:49;;;;;;;4.65;3.78;;;11.30;99.90;;;;;;5024811;28;20103;-67
2022/04/05 12:26:20;;;;;;;7.13;4.35;;;11.20;99.90;;;;;;5020860;28;20313;-67
2022/04/05 12:28:50;;;;;;;7.05;3.00;;;11.20;99.90;;;;;;5025340;28;20543;-67
2022/04/05 12:31:17;;;;;;;6.72;3.20;;;11.30;99.90;;;;;;5025223;28;20052;-67
2022/04/05 12:34:10;;;;;;;6.60;2.70;;;11.30;99.90;;;;;;5022612;28;20057;-67
2022/04/05 12:36:38;;;;;;;5.03;2.90;;;11.40;99.90;;;;;;5028053;28;20045;-67
2022/04/05 12:39:06;;;;;;;7.55;3.30;;;11.30;99.90;;;;;;5025631;28;20044;-67
2022/04/05 12:41:39;;;;;;;3.88;2.80;;;11.20;99.90;;;;;;5009301;28;20183;-67
2022/04/05 12:44:13;;;;;;;5.28;3.38;;;11.20;99.90;;;;;;5007968;28;20054;-67
2022/04/05 12:46:51;;;;;;;7.00;3.08;;;11.00;99.90;;;;;;5002909;28;20060;-67
2022/04/05 12:49:34;;;;;;;6.28;3.90;;;11.00;99.90;;;;;;5026437;28;20055;-66
2022/04/05 12:52:12;;;;;;;7.22;3.35;;;10.90;99.90;;;;;;5022678;28;20048;-66
2022/04/05 12:54:46;;;;;;;6.60;3.42;;;10.80;99.90;;;;;;5027384;28;20511;-66
2022/04/05 12:57:24;;;;;;;5.03;3.25;;;10.80;99.90;;;;;;5024341;28;20504;-66
2022/04/05 12:59:51;;;;;;;5.63;2.97;;;10.70;99.90;;;;;;5028941;28;20378;-66
2022/04/05 13:02:23;;;;;;;7.88;3.78;;;10.70;99.90;;;;;;5024672;28;20092;-67